Time,TemperatureF,DewpointF,PressureIn,WindDirection,WindDirectionDegrees,WindSpeedMPH,WindSpeedGustMPH,Humidity,HourlyPrecipIn,Conditions,Clouds,dailyrainin,SoftwareType,DateUTC
2016-02-09 00:00:00,11.0,3.7,30.11,NNE,15,13.8,13.8,72,0.00,CLR,SKC,0.00,WeatherDisplay:10.37,2016-02-09 06:00:00,
2016-02-09 00:10:00,10.8,3.8,30.12,NW,307,10.4,10.4,73,0.00,CLR,SKC,0.00,WeatherDisplay:10.37,2016-02-09 06:10:00,
2016-02-09 00:15:00,10.8,3.8,30.12,NNW,327,16.0,16.0,73,0.00,CLR,SKC,0.00,WeatherDisplay:10.37,2016-02-09 06:15:00,
2016-02-09 00:20:00,10.7,3.7,30.12,North,355,11.5,11.5,73,0.00,CLR,SKC,0.00,WeatherDisplay:10.37,2016-02-09 06:20:00,
2016-02-09 00:25:00,10.7,3.7,30.12,NW,325,16.1,16.1,73,0.00,CLR,SKC,0.00,WeatherDisplay:10.37,2016-02-09 06:25:00,
2016-02-09 00:30:00,10.7,3.7,30.12,NW,325,11.5,11.5,73,0.00,CLR,SKC,0.00,WeatherDisplay:10.37,2016-02-09 06:30:00,
2016-02-09 00:35:00,10.6,3.6,30.12,NNW,340,9.2,9.2,73,0.00,CLR,SKC,0.00,WeatherDisplay:10.37,2016-02-09 06:35:00,
2016-02-09 00:40:00,10.6,3.6,30.12,WNW,293,19.6,19.6,73,0.00,CLR,SKC,0.00,WeatherDisplay:10.37,2016-02-09 06:40:00,
2016-02-09 00:50:00,10.6,3.3,30.12,NNW,345,13.8,13.8,72,0.00,CLR,SKC,0.00,WeatherDisplay:10.37,2016-02-09 06:50:00,
2016-02-09 00:55:00,10.6,3.0,30.12,NW,317,19.6,19.6,71,0.00,CLR,SKC,0.00,WeatherDisplay:10.37,2016-02-09 06:55:00,
2016-02-09 01:00:00,10.5,2.9,30.12,WNW,298,15.0,15.0,71,0.00,CLR,SKC,0.00,WeatherDisplay:10.37,2016-02-09 07:00:00,
2016-02-09 01:05:00,10.5,3.3,30.12,NNW,344,9.2,9.2,72,0.00,CLR,SKC,0.00,WeatherDisplay:10.37,2016-02-09 07:05:00,
2016-02-09 01:10:00,10.5,3.3,30.12,NNW,338,11.5,11.5,72,0.00,CLR,SKC,0.00,WeatherDisplay:10.37,2016-02-09 07:10:00,
2016-02-09 01:15:00,10.4,3.2,30.12,WNW,302,11.5,11.5,72,0.00,CLR,SKC,0.00,WeatherDisplay:10.37,2016-02-09 07:15:00,
2016-02-09 01:20:00,10.4,3.5,30.12,NW,307,11.5,11.5,73,0.00,CLR,SKC,0.00,WeatherDisplay:10.37,2016-02-09 07:20:00,
2016-02-09 01:25:00,10.3,3.4,30.12,NW,322,13.8,13.8,73,0.00,CLR,SKC,0.00,WeatherDisplay:10.37,2016-02-09 07:25:00,
2016-02-09 01:30:00,10.3,3.4,30.12,NW,309,12.7,12.7,73,0.00,CLR,SKC,0.00,WeatherDisplay:10.37,2016-02-09 07:30:00,
2016-02-09 01:35:00,10.3,3.4,30.12,North,351,17.3,17.3,73,0.00,CLR,SKC,0.00,WeatherDisplay:10.37,2016-02-09 07:35:00,
2016-02-09 01:40:00,10.2,3.3,30.12,NNE,13,16.0,16.0,73,0.00,CLR,SKC,0.00,WeatherDisplay:10.37,2016-02-09 07:40:00,
2016-02-09 01:45:00,10.2,3.0,30.12,NNW,327,17.3,17.3,72,0.00,CLR,SKC,0.00,WeatherDisplay:10.37,2016-02-09 07:45:00,
2016-02-09 01:50:00,10.2,3.0,30.12,NNW,331,11.5,11.5,72,0.00,CLR,SKC,0.00,WeatherDisplay:10.37,2016-02-09 07:50:00,
2016-02-09 01:55:00,10.1,2.9,30.12,North,355,19.6,19.6,72,0.00,CLR,SKC,0.00,WeatherDisplay:10.37,2016-02-09 07:55:00,
2016-02-09 02:00:00,10.1,2.9,30.12,North,360,13.8,13.8,72,0.00,CLR,SKC,0.00,WeatherDisplay:10.37,2016-02-09 08:00:00,
2016-02-09 02:05:00,10.1,2.9,30.12,NNW,327,10.4,10.4,72,0.00,CLR,SKC,0.00,WeatherDisplay:10.37,2016-02-09 08:05:00,
2016-02-09 02:10:00,10.1,2.9,30.13,WNW,302,11.0,11.0,72,0.00,CLR,SKC,0.00,WeatherDisplay:10.37,2016-02-09 08:10:00,
2016-02-09 02:15:00,10.0,3.1,30.13,NW,310,15.0,15.0,73,0.00,CLR,SKC,0.00,WeatherDisplay:10.37,2016-02-09 08:15:00,
2016-02-09 02:20:00,9.9,2.7,30.13,NW,325,17.3,17.3,72,0.00,CLR,SKC,0.00,WeatherDisplay:10.37,2016-02-09 08:20:00,
2016-02-09 02:25:00,9.9,2.7,30.13,NNW,328,13.8,13.8,72,0.00,CLR,SKC,0.00,WeatherDisplay:10.37,2016-02-09 08:25:00,
2016-02-09 02:30:00,9.8,2.6,30.14,NNW,336,19.6,19.6,72,0.00,CLR,SKC,0.00,WeatherDisplay:10.37,2016-02-09 08:30:00,
2016-02-09 02:35:00,9.6,2.4,30.14,NNW,345,12.7,12.7,72,0.00,CLR,SKC,0.00,WeatherDisplay:10.37,2016-02-09 08:35:00,
2016-02-09 02:40:00,9.4,2.2,30.14,NW,319,15.0,15.0,72,0.00,CLR,SKC,0.00,WeatherDisplay:10.37,2016-02-09 08:40:00,
2016-02-09 02:45:00,9.2,2.0,30.14,North,360,16.1,16.1,72,0.00,CLR,SKC,0.00,WeatherDisplay:10.37,2016-02-09 08:45:00,
2016-02-09 02:50:00,9.0,1.8,30.14,NW,321,10.4,10.4,72,0.00,CLR,SKC,0.00,WeatherDisplay:10.37,2016-02-09 08:50:00,
2016-02-09 02:55:00,8.9,1.7,30.14,NW,323,8.1,8.1,72,0.00,CLR,SKC,0.00,WeatherDisplay:10.37,2016-02-09 08:55:00,
2016-02-09 03:00:00,8.7,1.5,30.14,North,10,12.7,12.7,72,0.00,CLR,SKC,0.00,WeatherDisplay:10.37,2016-02-09 09:00:00,
2016-02-09 03:10:00,8.4,1.2,30.15,NW,325,10.4,10.4,72,0.00,CLR,SKC,0.00,WeatherDisplay:10.37,2016-02-09 09:10:00,
2016-02-09 03:15:00,8.2,1.0,30.15,NW,311,18.4,18.4,72,0.00,CLR,SKC,0.00,WeatherDisplay:10.37,2016-02-09 09:15:00,
2016-02-09 03:20:00,8.2,1.0,30.15,NNW,339,16.1,16.1,72,0.00,CLR,SKC,0.00,WeatherDisplay:10.37,2016-02-09 09:20:00,
2016-02-09 03:25:00,8.1,0.9,30.15,NNW,337,11.5,11.5,72,0.00,CLR,SKC,0.00,WeatherDisplay:10.37,2016-02-09 09:25:00,
2016-02-09 03:30:00,8.0,0.8,30.15,NW,319,16.1,16.1,72,0.00,CLR,SKC,0.00,WeatherDisplay:10.37,2016-02-09 09:30:00,
2016-02-09 03:35:00,7.9,0.7,30.15,NW,319,11.5,11.5,72,0.00,CLR,SKC,0.00,WeatherDisplay:10.37,2016-02-09 09:35:00,
2016-02-09 03:40:00,7.8,0.6,30.16,North,5,5.8,5.8,72,0.00,CLR,SKC,0.00,WeatherDisplay:10.37,2016-02-09 09:40:00,
2016-02-09 03:45:00,7.7,0.8,30.16,NW,325,12.7,12.7,73,0.00,CLR,SKC,0.00,WeatherDisplay:10.37,2016-02-09 09:45:00,
2016-02-09 03:50:00,7.7,0.8,30.16,NW,317,11.5,11.5,73,0.00,CLR,SKC,0.00,WeatherDisplay:10.37,2016-02-09 09:50:00,
2016-02-09 04:05:00,7.6,0.7,30.16,NW,321,13.8,13.8,73,0.00,CLR,SKC,0.00,WeatherDisplay:10.37,2016-02-09 10:05:00,
2016-02-09 04:10:00,7.6,0.7,30.16,NW,322,9.2,9.2,73,0.00,CLR,SKC,0.00,WeatherDisplay:10.37,2016-02-09 10:10:00,
2016-02-09 04:15:00,7.4,0.6,30.16,NW,320,14.0,14.0,73,0.00,CLR,SKC,0.00,WeatherDisplay:10.37,2016-02-09 10:15:00,
2016-02-09 04:20:00,7.2,0.4,30.16,NNW,344,11.0,11.0,73,0.00,CLR,SKC,0.00,WeatherDisplay:10.37,2016-02-09 10:20:00,
2016-02-09 04:25:00,7.1,0.3,30.17,NNW,342,10.4,10.4,73,0.00,CLR,SKC,0.00,WeatherDisplay:10.37,2016-02-09 10:25:00,
2016-02-09 04:30:00,7.1,0.3,30.17,NW,315,11.5,11.5,73,0.00,CLR,SKC,0.00,WeatherDisplay:10.37,2016-02-09 10:30:00,
2016-02-09 04:35:00,7.1,0.3,30.17,NNW,344,10.4,10.4,73,0.00,CLR,SKC,0.00,WeatherDisplay:10.37,2016-02-09 10:35:00,
2016-02-09 04:40:00,7.0,0.2,30.17,North,349,12.7,12.7,73,0.00,CLR,SKC,0.00,WeatherDisplay:10.37,2016-02-09 10:40:00,
2016-02-09 04:45:00,6.9,0.1,30.17,NNW,329,12.7,12.7,73,0.00,CLR,SKC,0.00,WeatherDisplay:10.37,2016-02-09 10:45:00,
2016-02-09 04:50:00,6.9,0.1,30.18,NNW,344,8.1,8.1,73,0.00,CLR,SKC,0.00,WeatherDisplay:10.37,2016-02-09 10:50:00,
2016-02-09 04:55:00,6.8,0.0,30.18,NW,318,13.8,13.8,73,0.00,CLR,SKC,0.00,WeatherDisplay:10.37,2016-02-09 10:55:00,
2016-02-09 05:00:00,6.7,-0.1,30.18,NNW,334,12.0,12.0,73,0.00,CLR,SKC,0.00,WeatherDisplay:10.37,2016-02-09 11:00:00,
2016-02-09 05:05:00,6.5,-0.3,30.18,North,355,17.3,17.3,73,0.00,CLR,SKC,0.00,WeatherDisplay:10.37,2016-02-09 11:05:00,
2016-02-09 05:10:00,6.4,-0.4,30.19,NNW,336,17.3,17.3,73,0.00,CLR,SKC,0.00,WeatherDisplay:10.37,2016-02-09 11:10:00,
2016-02-09 05:15:00,6.3,-0.8,30.19,NW,313,12.7,12.7,72,0.00,CLR,SKC,0.00,WeatherDisplay:10.37,2016-02-09 11:15:00,
2016-02-09 05:20:00,6.2,-0.6,30.19,NNW,327,11.5,11.5,73,0.00,CLR,SKC,0.00,WeatherDisplay:10.37,2016-02-09 11:20:00,
2016-02-09 05:25:00,6.0,-0.8,30.19,NW,313,15.0,15.0,73,0.00,CLR,SKC,0.00,WeatherDisplay:10.37,2016-02-09 11:25:00,
2016-02-09 05:30:00,5.8,-1.0,30.19,NW,313,16.0,16.0,73,0.00,CLR,SKC,0.00,WeatherDisplay:10.37,2016-02-09 11:30:00,
2016-02-09 05:35:00,5.8,-1.0,30.19,NNW,328,11.5,11.5,73,0.00,CLR,SKC,0.00,WeatherDisplay:10.37,2016-02-09 11:35:00,
2016-02-09 05:40:00,5.6,-1.2,30.19,NNW,344,19.6,19.6,73,0.00,CLR,SKC,0.00,WeatherDisplay:10.37,2016-02-09 11:40:00,
2016-02-09 05:45:00,5.5,-1.3,30.19,NNE,18,16.1,16.1,73,0.00,CLR,SKC,0.00,WeatherDisplay:10.37,2016-02-09 11:45:00,
2016-02-09 05:50:00,5.4,-1.4,30.19,NW,323,15.0,15.0,73,0.00,CLR,SKC,0.00,WeatherDisplay:10.37,2016-02-09 11:50:00,
2016-02-09 05:55:00,5.3,-1.5,30.19,NW,319,11.0,11.0,73,0.00,CLR,SKC,0.00,WeatherDisplay:10.37,2016-02-09 11:55:00,
2016-02-09 06:00:00,5.3,-1.5,30.19,NNW,327,10.4,10.4,73,0.00,CLR,SKC,0.00,WeatherDisplay:10.37,2016-02-09 12:00:00,
2016-02-09 06:05:00,5.1,-1.7,30.19,North,355,17.3,17.3,73,0.00,CLR,SKC,0.00,WeatherDisplay:10.37,2016-02-09 12:05:00,
2016-02-09 06:10:00,5.1,-1.7,30.20,NNW,336,12.7,12.7,73,0.00,CLR,SKC,0.00,WeatherDisplay:10.37,2016-02-09 12:10:00,
2016-02-09 06:15:00,5.0,0.7,30.20,NW,325,10.4,10.4,82,0.00,CLR,SKC,0.00,WeatherDisplay:10.37,2016-02-09 12:15:00,
2016-02-09 06:20:00,5.0,-1.8,30.20,NW,322,12.7,12.7,73,0.00,CLR,SKC,0.00,WeatherDisplay:10.37,2016-02-09 12:20:00,
2016-02-09 06:25:00,4.9,-1.9,30.20,NW,316,12.7,12.7,73,0.00,CLR,SKC,0.00,WeatherDisplay:10.37,2016-02-09 12:25:00,
2016-02-09 06:30:00,4.8,-1.7,30.20,NW,318,17.3,17.3,74,0.00,CLR,SKC,0.00,WeatherDisplay:10.37,2016-02-09 12:30:00,
2016-02-09 06:35:00,4.9,-1.9,30.20,NW,319,16.1,16.1,73,0.00,CLR,SKC,0.00,WeatherDisplay:10.37,2016-02-09 12:35:00,
2016-02-09 06:40:00,4.8,-2.0,30.20,NW,313,10.4,10.4,73,0.00,CLR,SKC,0.00,WeatherDisplay:10.37,2016-02-09 12:40:00,
2016-02-09 06:45:00,4.8,-1.7,30.21,WNW,301,15.0,15.0,74,0.00,CLR,SKC,0.00,WeatherDisplay:10.37,2016-02-09 12:45:00,
2016-02-09 06:55:00,4.7,-1.8,30.21,NW,306,12.7,12.7,74,0.00,CLR,SKC,0.00,WeatherDisplay:10.37,2016-02-09 12:55:00,
2016-02-09 07:00:00,4.7,-1.8,30.21,NNW,329,11.5,11.5,74,0.00,CLR,SKC,0.00,WeatherDisplay:10.37,2016-02-09 13:00:00,
2016-02-09 07:05:00,4.7,-1.8,30.21,NW,326,15.0,15.0,74,0.00,CLR,SKC,0.00,WeatherDisplay:10.37,2016-02-09 13:05:00,
2016-02-09 07:10:00,4.6,-1.9,30.21,NNW,333,13.8,13.8,74,0.00,CLR,SKC,0.00,WeatherDisplay:10.37,2016-02-09 13:10:00,
2016-02-09 07:15:00,4.6,-1.9,30.21,North,349,11.5,11.5,74,0.00,CLR,SKC,0.00,WeatherDisplay:10.37,2016-02-09 13:15:00,
2016-02-09 07:20:00,4.5,-2.0,30.22,NW,304,11.5,11.5,74,0.00,CLR,SKC,0.00,WeatherDisplay:10.37,2016-02-09 13:20:00,
2016-02-09 07:25:00,4.5,-2.0,30.22,NNW,335,8.0,8.2,74,0.00,CLR,SKC,0.00,WeatherDisplay:10.37,2016-02-09 13:25:00,
2016-02-09 07:30:00,4.5,-2.0,30.22,NW,316,10.4,10.4,74,0.00,CLR,SKC,0.00,WeatherDisplay:10.37,2016-02-09 13:30:00,
2016-02-09 07:35:00,4.4,-2.1,30.22,NNW,330,9.2,9.2,74,0.00,CLR,SKC,0.00,WeatherDisplay:10.37,2016-02-09 13:35:00,
2016-02-09 07:40:00,4.3,-2.2,30.22,NW,312,10.0,10.0,74,0.00,CLR,SKC,0.00,WeatherDisplay:10.37,2016-02-09 13:40:00,
2016-02-09 07:45:00,4.4,-2.1,30.23,NNW,338,10.4,10.4,74,0.00,CLR,SKC,0.00,WeatherDisplay:10.37,2016-02-09 13:45:00,
2016-02-09 07:50:00,4.3,-2.2,30.23,North,355,12.7,12.7,74,0.00,CLR,SKC,0.00,WeatherDisplay:10.37,2016-02-09 13:50:00,
2016-02-09 07:55:00,4.5,-2.0,30.23,NW,325,11.5,11.5,74,0.00,CLR,SKC,0.00,WeatherDisplay:10.37,2016-02-09 13:55:00,
2016-02-09 08:00:00,4.5,-2.0,30.23,NW,319,10.4,10.4,74,0.00,CLR,SKC,0.00,WeatherDisplay:10.37,2016-02-09 14:00:00,
2016-02-09 08:05:00,4.6,-1.9,30.23,NW,326,16.1,16.1,74,0.00,CLR,SKC,0.00,WeatherDisplay:10.37,2016-02-09 14:05:00,
2016-02-09 08:10:00,4.7,-1.8,30.23,NNW,327,10.4,10.4,74,0.00,CLR,SKC,0.00,WeatherDisplay:10.37,2016-02-09 14:10:00,
2016-02-09 08:15:00,4.8,-2.0,30.23,NNW,336,11.5,11.5,73,0.00,CLR,SKC,0.00,WeatherDisplay:10.37,2016-02-09 14:15:00,
2016-02-09 08:20:00,4.9,-1.9,30.23,NW,304,13.8,13.8,73,0.00,CLR,SKC,0.00,WeatherDisplay:10.37,2016-02-09 14:20:00,
2016-02-09 08:25:00,5.0,-1.8,30.24,NW,325,10.4,10.4,73,0.00,CLR,SKC,0.00,WeatherDisplay:10.37,2016-02-09 14:25:00,
2016-02-09 08:30:00,5.1,-1.7,30.24,North,360,16.1,16.1,73,0.00,CLR,SKC,0.00,WeatherDisplay:10.37,2016-02-09 14:30:00,
2016-02-09 08:35:00,5.1,-2.0,30.23,NW,322,16.1,16.1,72,0.00,CLR,SKC,0.00,WeatherDisplay:10.37,2016-02-09 14:35:00,
2016-02-09 08:40:00,5.2,-1.9,30.23,NW,325,15.0,15.0,72,0.00,CLR,SKC,0.00,WeatherDisplay:10.37,2016-02-09 14:40:00,
2016-02-09 08:45:00,5.4,-1.7,30.23,NNW,345,11.5,11.5,72,0.00,CLR,SKC,0.00,WeatherDisplay:10.37,2016-02-09 14:45:00,
2016-02-09 08:50:00,5.5,-1.6,30.23,NNW,345,11.5,11.5,72,0.00,CLR,SKC,0.00,WeatherDisplay:10.37,2016-02-09 14:50:00,
2016-02-09 08:55:00,5.7,-1.4,30.23,NNW,328,13.8,13.8,72,0.00,CLR,SKC,0.00,WeatherDisplay:10.37,2016-02-09 14:55:00,
2016-02-09 09:00:00,5.8,-1.6,30.23,WNW,301,15.0,15.0,71,0.00,CLR,SKC,0.00,WeatherDisplay:10.37,2016-02-09 15:00:00,
2016-02-09 09:05:00,5.9,-1.5,30.23,NNW,345,15.0,15.0,71,0.00,CLR,SKC,0.00,WeatherDisplay:10.37,2016-02-09 15:05:00,